sensor_id;sensor_type;location;lat;lon;timestamp;P1;durP1;ratioP1;P2;durP2;ratioP2
16173;SDS011;14031;50.158;8.626;2023-07-09T00:05:45;4.30;;;3.80;;
16173;SDS011;14031;50.158;8.626;2023-07-09T00:08:34;9.35;;;4.13;;
16173;SDS011;14031;50.158;8.626;2023-07-09T00:38:10;5.18;;;3.80;;
16173;SDS011;14031;50.158;8.626;2023-07-09T00:41:20;4.20;;;3.80;;
16173;SDS011;14031;50.158;8.626;2023-07-09T00:44:51;4.30;;;4.00;;
16173;SDS011;14031;50.158;8.626;2023-07-09T00:51:25;6.22;;;4.35;;
16173;SDS011;14031;50.158;8.626;2023-07-09T00:57:43;5.50;;;3.83;;
16173;SDS011;14031;50.158;8.626;2023-07-09T01:00:45;4.35;;;3.92;;
16173;SDS011;14031;50.158;8.626;2023-07-09T01:06:28;4.75;;;4.28;;
16173;SDS011;14031;50.158;8.626;2023-07-09T01:18:41;4.00;;;3.60;;
16173;SDS011;14031;50.158;8.626;2023-07-09T01:28:18;6.93;;;4.13;;
16173;SDS011;14031;50.158;8.626;2023-07-09T01:34:33;4.78;;;3.95;;
16173;SDS011;14031;50.158;8.626;2023-07-09T01:46:16;4.13;;;3.83;;
16173;SDS011;14031;50.158;8.626;2023-07-09T01:49:15;6.75;;;4.25;;
16173;SDS011;14031;50.158;8.626;2023-07-09T01:52:25;4.32;;;3.80;;
16173;SDS011;14031;50.158;8.626;2023-07-09T01:58:28;5.13;;;4.38;;
16173;SDS011;14031;50.158;8.626;2023-07-09T02:04:23;4.97;;;4.30;;
16173;SDS011;14031;50.158;8.626;2023-07-09T02:10:28;4.03;;;3.83;;
16173;SDS011;14031;50.158;8.626;2023-07-09T02:20:03;4.75;;;3.45;;
16173;SDS011;14031;50.158;8.626;2023-07-09T02:23:06;3.63;;;3.42;;
16173;SDS011;14031;50.158;8.626;2023-07-09T02:28:58;4.75;;;3.90;;
16173;SDS011;14031;50.158;8.626;2023-07-09T02:34:47;4.43;;;4.03;;
16173;SDS011;14031;50.158;8.626;2023-07-09T02:37:45;5.05;;;3.85;;
16173;SDS011;14031;50.158;8.626;2023-07-09T02:40:57;6.32;;;4.43;;
16173;SDS011;14031;50.158;8.626;2023-07-09T02:43:48;3.90;;;3.70;;
16173;SDS011;14031;50.158;8.626;2023-07-09T02:46:40;3.92;;;3.42;;
16173;SDS011;14031;50.158;8.626;2023-07-09T02:49:35;3.95;;;3.70;;
16173;SDS011;14031;50.158;8.626;2023-07-09T02:59:03;4.20;;;3.90;;
16173;SDS011;14031;50.158;8.626;2023-07-09T03:01:54;4.00;;;3.70;;
16173;SDS011;14031;50.158;8.626;2023-07-09T03:07:38;4.03;;;3.67;;
16173;SDS011;14031;50.158;8.626;2023-07-09T03:10:23;5.10;;;3.60;;
16173;SDS011;14031;50.158;8.626;2023-07-09T03:13:26;4.20;;;3.90;;
16173;SDS011;14031;50.158;8.626;2023-07-09T03:16:42;3.75;;;3.53;;
16173;SDS011;14031;50.158;8.626;2023-07-09T03:19:36;4.53;;;4.15;;
16173;SDS011;14031;50.158;8.626;2023-07-09T03:22:18;4.60;;;4.10;;
16173;SDS011;14031;50.158;8.626;2023-07-09T03:28:43;5.80;;;4.13;;
16173;SDS011;14031;50.158;8.626;2023-07-09T03:32:09;4.25;;;4.05;;
16173;SDS011;14031;50.158;8.626;2023-07-09T03:35:38;4.78;;;4.38;;
16173;SDS011;14031;50.158;8.626;2023-07-09T03:38:23;5.78;;;4.10;;
16173;SDS011;14031;50.158;8.626;2023-07-09T03:41:25;4.53;;;4.13;;
16173;SDS011;14031;50.158;8.626;2023-07-09T03:44:13;4.68;;;3.75;;
16173;SDS011;14031;50.158;8.626;2023-07-09T03:53:09;4.03;;;3.75;;
16173;SDS011;14031;50.158;8.626;2023-07-09T03:55:54;3.67;;;3.47;;
16173;SDS011;14031;50.158;8.626;2023-07-09T03:58:32;4.20;;;3.90;;
16173;SDS011;14031;50.158;8.626;2023-07-09T04:01:37;7.70;;;4.63;;
16173;SDS011;14031;50.158;8.626;2023-07-09T04:04:12;5.75;;;3.85;;
16173;SDS011;14031;50.158;8.626;2023-07-09T04:06:47;4.50;;;3.75;;
16173;SDS011;14031;50.158;8.626;2023-07-09T04:09:16;3.72;;;3.53;;
16173;SDS011;14031;50.158;8.626;2023-07-09T04:11:44;5.65;;;4.38;;
16173;SDS011;14031;50.158;8.626;2023-07-09T04:14:37;4.35;;;3.88;;
16173;SDS011;14031;50.158;8.626;2023-07-09T04:17:28;4.25;;;3.95;;
16173;SDS011;14031;50.158;8.626;2023-07-09T04:20:32;3.75;;;3.53;;
16173;SDS011;14031;50.158;8.626;2023-07-09T04:26:34;4.25;;;3.85;;
16173;SDS011;14031;50.158;8.626;2023-07-09T04:32:52;7.05;;;3.83;;
16173;SDS011;14031;50.158;8.626;2023-07-09T04:36:11;4.05;;;3.75;;
16173;SDS011;14031;50.158;8.626;2023-07-09T04:39:42;3.90;;;3.60;;
16173;SDS011;14031;50.158;8.626;2023-07-09T04:42:37;3.95;;;3.53;;
16173;SDS011;14031;50.158;8.626;2023-07-09T04:45:46;4.25;;;3.78;;
16173;SDS011;14031;50.158;8.626;2023-07-09T04:51:44;4.20;;;3.80;;
16173;SDS011;14031;50.158;8.626;2023-07-09T04:54:28;4.40;;;4.00;;
16173;SDS011;14031;50.158;8.626;2023-07-09T04:57:12;4.28;;;3.63;;
16173;SDS011;14031;50.158;8.626;2023-07-09T05:00:03;4.28;;;3.97;;
16173;SDS011;14031;50.158;8.626;2023-07-09T05:02:49;4.28;;;3.83;;
16173;SDS011;14031;50.158;8.626;2023-07-09T05:05:20;3.90;;;3.60;;
16173;SDS011;14031;50.158;8.626;2023-07-09T05:07:48;4.57;;;4.20;;
16173;SDS011;14031;50.158;8.626;2023-07-09T05:13:07;3.80;;;3.60;;
16173;SDS011;14031;50.158;8.626;2023-07-09T05:15:39;4.50;;;4.10;;
16173;SDS011;14031;50.158;8.626;2023-07-09T05:18:08;4.13;;;3.80;;
16173;SDS011;14031;50.158;8.626;2023-07-09T05:20:41;5.20;;;4.20;;
16173;SDS011;14031;50.158;8.626;2023-07-09T05:23:08;3.97;;;3.67;;
16173;SDS011;14031;50.158;8.626;2023-07-09T05:25:36;3.83;;;3.53;;
16173;SDS011;14031;50.158;8.626;2023-07-09T05:28:03;8.32;;;4.28;;
16173;SDS011;14031;50.158;8.626;2023-07-09T05:30:31;4.90;;;4.25;;
16173;SDS011;14031;50.158;8.626;2023-07-09T05:33:06;5.45;;;4.57;;
16173;SDS011;14031;50.158;8.626;2023-07-09T05:38:42;5.20;;;4.50;;
16173;SDS011;14031;50.158;8.626;2023-07-09T05:41:11;6.15;;;4.90;;
16173;SDS011;14031;50.158;8.626;2023-07-09T05:46:45;4.40;;;3.92;;
16173;SDS011;14031;50.158;8.626;2023-07-09T05:49:39;5.65;;;5.10;;
16173;SDS011;14031;50.158;8.626;2023-07-09T05:52:29;7.95;;;4.72;;
16173;SDS011;14031;50.158;8.626;2023-07-09T05:59:02;5.57;;;4.18;;
16173;SDS011;14031;50.158;8.626;2023-07-09T06:01:57;6.22;;;5.68;;
16173;SDS011;14031;50.158;8.626;2023-07-09T06:05:08;7.78;;;4.72;;
16173;SDS011;14031;50.158;8.626;2023-07-09T06:07:37;4.72;;;4.38;;
16173;SDS011;14031;50.158;8.626;2023-07-09T06:10:13;4.63;;;4.32;;
16173;SDS011;14031;50.158;8.626;2023-07-09T06:12:41;6.82;;;4.70;;
16173;SDS011;14031;50.158;8.626;2023-07-09T06:15:32;6.15;;;4.78;;
16173;SDS011;14031;50.158;8.626;2023-07-09T06:18:03;5.60;;;5.10;;
16173;SDS011;14031;50.158;8.626;2023-07-09T06:20:32;5.35;;;4.90;;
16173;SDS011;14031;50.158;8.626;2023-07-09T06:23:17;6.82;;;5.45;;
16173;SDS011;14031;50.158;8.626;2023-07-09T06:25:45;4.93;;;4.63;;
16173;SDS011;14031;50.158;8.626;2023-07-09T06:28:35;6.90;;;4.85;;
16173;SDS011;14031;50.158;8.626;2023-07-09T06:34:29;5.78;;;5.28;;
16173;SDS011;14031;50.158;8.626;2023-07-09T06:37:16;7.40;;;5.25;;
16173;SDS011;14031;50.158;8.626;2023-07-09T06:39:47;6.35;;;5.60;;
16173;SDS011;14031;50.158;8.626;2023-07-09T06:42:17;6.00;;;5.47;;
16173;SDS011;14031;50.158;8.626;2023-07-09T06:45:07;5.38;;;4.88;;
16173;SDS011;14031;50.158;8.626;2023-07-09T06:47:38;5.30;;;4.90;;
16173;SDS011;14031;50.158;8.626;2023-07-09T06:50:13;5.53;;;4.80;;
16173;SDS011;14031;50.158;8.626;2023-07-09T06:52:51;5.50;;;5.00;;
16173;SDS011;14031;50.158;8.626;2023-07-09T06:55:21;5.38;;;4.93;;
16173;SDS011;14031;50.158;8.626;2023-07-09T06:57:50;5.85;;;5.40;;
16173;SDS011;14031;50.158;8.626;2023-07-09T07:00:35;4.78;;;4.40;;
16173;SDS011;14031;50.158;8.626;2023-07-09T07:03:06;5.63;;;5.00;;
16173;SDS011;14031;50.158;8.626;2023-07-09T07:05:57;9.60;;;5.03;;
16173;SDS011;14031;50.158;8.626;2023-07-09T07:08:25;4.97;;;4.57;;
16173;SDS011;14031;50.158;8.626;2023-07-09T07:11:10;9.75;;;4.82;;
16173;SDS011;14031;50.158;8.626;2023-07-09T07:13:57;5.55;;;5.00;;
16173;SDS011;14031;50.158;8.626;2023-07-09T07:16:43;5.07;;;4.78;;
16173;SDS011;14031;50.158;8.626;2023-07-09T07:19:12;5.25;;;4.85;;
16173;SDS011;14031;50.158;8.626;2023-07-09T07:21:39;5.45;;;5.00;;
16173;SDS011;14031;50.158;8.626;2023-07-09T07:24:06;5.05;;;4.65;;
16173;SDS011;14031;50.158;8.626;2023-07-09T07:26:33;5.03;;;4.10;;
16173;SDS011;14031;50.158;8.626;2023-07-09T07:29:00;6.30;;;5.18;;
16173;SDS011;14031;50.158;8.626;2023-07-09T07:31:27;5.68;;;5.10;;
16173;SDS011;14031;50.158;8.626;2023-07-09T07:33:56;5.18;;;4.75;;
16173;SDS011;14031;50.158;8.626;2023-07-09T07:36:29;6.30;;;4.57;;
16173;SDS011;14031;50.158;8.626;2023-07-09T07:38:55;5.30;;;4.72;;
16173;SDS011;14031;50.158;8.626;2023-07-09T07:41:22;5.55;;;4.53;;
16173;SDS011;14031;50.158;8.626;2023-07-09T07:43:49;5.18;;;4.75;;
16173;SDS011;14031;50.158;8.626;2023-07-09T07:46:34;5.43;;;4.80;;
16173;SDS011;14031;50.158;8.626;2023-07-09T07:49:29;5.47;;;4.95;;
16173;SDS011;14031;50.158;8.626;2023-07-09T07:51:57;5.20;;;4.68;;
16173;SDS011;14031;50.158;8.626;2023-07-09T07:54:24;6.28;;;5.40;;
16173;SDS011;14031;50.158;8.626;2023-07-09T07:56:50;5.20;;;4.85;;
16173;SDS011;14031;50.158;8.626;2023-07-09T07:59:17;5.85;;;5.28;;
16173;SDS011;14031;50.158;8.626;2023-07-09T08:01:47;5.43;;;5.03;;
16173;SDS011;14031;50.158;8.626;2023-07-09T08:04:14;9.40;;;5.78;;
16173;SDS011;14031;50.158;8.626;2023-07-09T08:06:40;5.25;;;4.82;;
16173;SDS011;14031;50.158;8.626;2023-07-09T08:09:08;5.80;;;5.25;;
16173;SDS011;14031;50.158;8.626;2023-07-09T08:11:35;5.55;;;4.88;;
16173;SDS011;14031;50.158;8.626;2023-07-09T08:14:02;5.35;;;4.85;;
16173;SDS011;14031;50.158;8.626;2023-07-09T08:16:29;6.53;;;4.80;;
16173;SDS011;14031;50.158;8.626;2023-07-09T08:18:55;6.97;;;4.82;;
16173;SDS011;14031;50.158;8.626;2023-07-09T08:21:22;7.63;;;4.97;;
16173;SDS011;14031;50.158;8.626;2023-07-09T08:23:49;6.60;;;4.70;;
16173;SDS011;14031;50.158;8.626;2023-07-09T08:26:17;7.68;;;5.00;;
16173;SDS011;14031;50.158;8.626;2023-07-09T08:28:44;7.47;;;5.03;;
16173;SDS011;14031;50.158;8.626;2023-07-09T08:31:10;9.27;;;5.40;;
16173;SDS011;14031;50.158;8.626;2023-07-09T08:33:37;7.55;;;5.30;;
16173;SDS011;14031;50.158;8.626;2023-07-09T08:36:05;5.03;;;4.68;;
16173;SDS011;14031;50.158;8.626;2023-07-09T08:38:31;5.20;;;4.70;;
16173;SDS011;14031;50.158;8.626;2023-07-09T08:40:59;6.60;;;5.10;;
16173;SDS011;14031;50.158;8.626;2023-07-09T08:43:33;8.15;;;5.07;;
16173;SDS011;14031;50.158;8.626;2023-07-09T08:46:10;5.95;;;5.45;;
16173;SDS011;14031;50.158;8.626;2023-07-09T08:48:44;5.07;;;4.68;;
16173;SDS011;14031;50.158;8.626;2023-07-09T08:51:14;5.22;;;4.43;;
16173;SDS011;14031;50.158;8.626;2023-07-09T08:53:47;6.22;;;4.60;;
16173;SDS011;14031;50.158;8.626;2023-07-09T08:56:16;5.03;;;4.63;;
16173;SDS011;14031;50.158;8.626;2023-07-09T08:58:46;4.95;;;4.60;;
16173;SDS011;14031;50.158;8.626;2023-07-09T09:01:17;6.72;;;4.50;;
16173;SDS011;14031;50.158;8.626;2023-07-09T09:03:46;4.72;;;4.30;;
16173;SDS011;14031;50.158;8.626;2023-07-09T09:06:16;4.45;;;4.18;;
16173;SDS011;14031;50.158;8.626;2023-07-09T09:08:47;4.90;;;4.40;;
16173;SDS011;14031;50.158;8.626;2023-07-09T09:11:31;6.15;;;4.60;;
16173;SDS011;14031;50.158;8.626;2023-07-09T09:14:14;5.43;;;4.57;;
16173;SDS011;14031;50.158;8.626;2023-07-09T09:16:48;4.65;;;4.15;;
16173;SDS011;14031;50.158;8.626;2023-07-09T09:19:18;4.97;;;4.40;;
16173;SDS011;14031;50.158;8.626;2023-07-09T09:21:50;5.30;;;4.68;;
16173;SDS011;14031;50.158;8.626;2023-07-09T09:24:25;6.22;;;4.55;;
16173;SDS011;14031;50.158;8.626;2023-07-09T09:26:57;4.22;;;4.03;;
16173;SDS011;14031;50.158;8.626;2023-07-09T09:29:26;4.80;;;4.32;;
16173;SDS011;14031;50.158;8.626;2023-07-09T09:31:54;6.43;;;4.00;;
16173;SDS011;14031;50.158;8.626;2023-07-09T09:34:25;6.60;;;4.40;;
16173;SDS011;14031;50.158;8.626;2023-07-09T09:36:53;5.75;;;4.65;;
16173;SDS011;14031;50.158;8.626;2023-07-09T09:39:20;4.28;;;3.95;;
16173;SDS011;14031;50.158;8.626;2023-07-09T09:41:51;4.55;;;4.00;;
16173;SDS011;14031;50.158;8.626;2023-07-09T09:44:20;4.47;;;4.00;;
16173;SDS011;14031;50.158;8.626;2023-07-09T09:46:52;4.70;;;4.25;;
16173;SDS011;14031;50.158;8.626;2023-07-09T09:49:21;4.75;;;4.18;;
16173;SDS011;14031;50.158;8.626;2023-07-09T09:51:48;4.10;;;3.80;;
16173;SDS011;14031;50.158;8.626;2023-07-09T09:54:17;4.55;;;3.85;;
16173;SDS011;14031;50.158;8.626;2023-07-09T09:56:47;5.85;;;4.20;;
16173;SDS011;14031;50.158;8.626;2023-07-09T09:59:16;4.30;;;3.80;;
16173;SDS011;14031;50.158;8.626;2023-07-09T10:01:45;5.65;;;3.92;;
16173;SDS011;14031;50.158;8.626;2023-07-09T10:04:16;9.48;;;4.55;;
16173;SDS011;14031;50.158;8.626;2023-07-09T10:06:46;5.95;;;4.07;;
16173;SDS011;14031;50.158;8.626;2023-07-09T10:09:16;6.22;;;4.40;;
16173;SDS011;14031;50.158;8.626;2023-07-09T10:12:02;5.20;;;4.50;;
16173;SDS011;14031;50.158;8.626;2023-07-09T10:14:41;4.13;;;3.80;;
16173;SDS011;14031;50.158;8.626;2023-07-09T10:17:18;4.50;;;3.95;;
16173;SDS011;14031;50.158;8.626;2023-07-09T10:19:53;3.88;;;3.58;;
16173;SDS011;14031;50.158;8.626;2023-07-09T10:22:28;4.05;;;3.75;;
16173;SDS011;14031;50.158;8.626;2023-07-09T10:25:06;4.30;;;3.88;;
16173;SDS011;14031;50.158;8.626;2023-07-09T10:27:44;7.47;;;4.15;;
16173;SDS011;14031;50.158;8.626;2023-07-09T10:30:26;4.03;;;3.72;;
16173;SDS011;14031;50.158;8.626;2023-07-09T10:33:06;4.20;;;3.83;;
16173;SDS011;14031;50.158;8.626;2023-07-09T10:35:38;4.10;;;3.80;;
16173;SDS011;14031;50.158;8.626;2023-07-09T10:38:16;4.05;;;3.85;;
16173;SDS011;14031;50.158;8.626;2023-07-09T10:40:52;3.97;;;3.65;;
16173;SDS011;14031;50.158;8.626;2023-07-09T10:43:22;4.45;;;3.92;;
16173;SDS011;14031;50.158;8.626;2023-07-09T10:46:02;4.25;;;3.83;;
16173;SDS011;14031;50.158;8.626;2023-07-09T10:48:34;3.85;;;3.60;;
16173;SDS011;14031;50.158;8.626;2023-07-09T10:51:05;4.38;;;3.97;;
16173;SDS011;14031;50.158;8.626;2023-07-09T10:53:43;3.78;;;3.45;;
16173;SDS011;14031;50.158;8.626;2023-07-09T10:56:14;4.40;;;4.07;;
16173;SDS011;14031;50.158;8.626;2023-07-09T10:58:44;4.07;;;3.80;;
16173;SDS011;14031;50.158;8.626;2023-07-09T11:01:16;4.32;;;4.03;;
16173;SDS011;14031;50.158;8.626;2023-07-09T11:03:52;8.82;;;3.70;;
16173;SDS011;14031;50.158;8.626;2023-07-09T11:06:25;4.30;;;3.80;;
16173;SDS011;14031;50.158;8.626;2023-07-09T11:08:57;4.60;;;4.10;;
16173;SDS011;14031;50.158;8.626;2023-07-09T11:11:29;3.78;;;3.53;;
16173;SDS011;14031;50.158;8.626;2023-07-09T11:14:00;4.82;;;3.92;;
16173;SDS011;14031;50.158;8.626;2023-07-09T11:16:34;4.70;;;3.42;;
16173;SDS011;14031;50.158;8.626;2023-07-09T11:19:04;7.55;;;3.55;;
16173;SDS011;14031;50.158;8.626;2023-07-09T11:21:39;3.47;;;3.28;;
16173;SDS011;14031;50.158;8.626;2023-07-09T11:24:24;3.83;;;3.53;;
16173;SDS011;14031;50.158;8.626;2023-07-09T11:26:56;3.72;;;3.40;;
16173;SDS011;14031;50.158;8.626;2023-07-09T11:29:25;3.47;;;3.08;;
16173;SDS011;14031;50.158;8.626;2023-07-09T11:31:52;3.88;;;3.53;;
16173;SDS011;14031;50.158;8.626;2023-07-09T11:34:19;4.00;;;3.70;;
16173;SDS011;14031;50.158;8.626;2023-07-09T11:36:49;4.07;;;3.75;;
16173;SDS011;14031;50.158;8.626;2023-07-09T11:39:18;3.92;;;3.63;;
16173;SDS011;14031;50.158;8.626;2023-07-09T11:41:47;3.70;;;3.40;;
16173;SDS011;14031;50.158;8.626;2023-07-09T11:44:15;3.53;;;3.33;;
16173;SDS011;14031;50.158;8.626;2023-07-09T11:46:47;3.80;;;3.50;;
16173;SDS011;14031;50.158;8.626;2023-07-09T11:49:22;4.13;;;3.83;;
16173;SDS011;14031;50.158;8.626;2023-07-09T11:51:53;5.57;;;3.67;;
16173;SDS011;14031;50.158;8.626;2023-07-09T11:54:25;5.68;;;3.50;;
16173;SDS011;14031;50.158;8.626;2023-07-09T11:56:55;4.15;;;3.58;;
16173;SDS011;14031;50.158;8.626;2023-07-09T11:59:24;6.03;;;3.63;;
16173;SDS011;14031;50.158;8.626;2023-07-09T12:01:51;5.05;;;3.67;;
16173;SDS011;14031;50.158;8.626;2023-07-09T12:04:20;4.20;;;3.22;;
16173;SDS011;14031;50.158;8.626;2023-07-09T12:06:50;4.78;;;3.42;;
16173;SDS011;14031;50.158;8.626;2023-07-09T12:09:23;3.60;;;3.10;;
16173;SDS011;14031;50.158;8.626;2023-07-09T12:11:50;4.97;;;3.72;;
16173;SDS011;14031;50.158;8.626;2023-07-09T12:14:18;4.00;;;3.58;;
16173;SDS011;14031;50.158;8.626;2023-07-09T12:16:46;4.00;;;3.58;;
16173;SDS011;14031;50.158;8.626;2023-07-09T12:19:14;3.47;;;3.10;;
16173;SDS011;14031;50.158;8.626;2023-07-09T12:21:43;5.53;;;3.50;;
16173;SDS011;14031;50.158;8.626;2023-07-09T12:24:18;3.65;;;3.45;;
16173;SDS011;14031;50.158;8.626;2023-07-09T12:26:48;4.00;;;3.63;;
16173;SDS011;14031;50.158;8.626;2023-07-09T12:29:15;5.20;;;3.63;;
16173;SDS011;14031;50.158;8.626;2023-07-09T12:31:42;3.38;;;3.17;;
16173;SDS011;14031;50.158;8.626;2023-07-09T12:34:12;3.80;;;3.28;;
16173;SDS011;14031;50.158;8.626;2023-07-09T12:36:41;4.85;;;3.58;;
16173;SDS011;14031;50.158;8.626;2023-07-09T12:39:11;3.55;;;3.25;;
16173;SDS011;14031;50.158;8.626;2023-07-09T12:41:42;3.70;;;3.40;;
16173;SDS011;14031;50.158;8.626;2023-07-09T12:44:14;4.03;;;3.65;;
16173;SDS011;14031;50.158;8.626;2023-07-09T12:46:43;5.53;;;3.20;;
16173;SDS011;14031;50.158;8.626;2023-07-09T12:49:12;3.50;;;3.30;;
16173;SDS011;14031;50.158;8.626;2023-07-09T12:51:50;6.22;;;3.42;;
16173;SDS011;14031;50.158;8.626;2023-07-09T12:54:20;3.67;;;3.47;;
16173;SDS011;14031;50.158;8.626;2023-07-09T12:57:00;3.63;;;3.35;;
16173;SDS011;14031;50.158;8.626;2023-07-09T12:59:37;5.47;;;3.30;;
16173;SDS011;14031;50.158;8.626;2023-07-09T13:02:06;5.57;;;3.75;;
16173;SDS011;14031;50.158;8.626;2023-07-09T13:04:40;3.50;;;3.30;;
16173;SDS011;14031;50.158;8.626;2023-07-09T13:07:18;3.55;;;3.17;;
16173;SDS011;14031;50.158;8.626;2023-07-09T13:09:53;3.80;;;3.50;;
16173;SDS011;14031;50.158;8.626;2023-07-09T13:12:27;3.50;;;3.20;;
16173;SDS011;14031;50.158;8.626;2023-07-09T13:14:55;4.22;;;3.78;;
16173;SDS011;14031;50.158;8.626;2023-07-09T13:17:22;3.95;;;3.65;;
16173;SDS011;14031;50.158;8.626;2023-07-09T13:19:49;4.03;;;3.72;;
16173;SDS011;14031;50.158;8.626;2023-07-09T13:22:16;4.32;;;4.03;;
16173;SDS011;14031;50.158;8.626;2023-07-09T13:24:44;3.85;;;3.58;;
16173;SDS011;14031;50.158;8.626;2023-07-09T13:27:12;6.13;;;3.55;;
16173;SDS011;14031;50.158;8.626;2023-07-09T13:29:41;3.60;;;3.30;;
16173;SDS011;14031;50.158;8.626;2023-07-09T13:32:08;4.53;;;3.47;;
16173;SDS011;14031;50.158;8.626;2023-07-09T13:34:36;3.92;;;3.58;;
16173;SDS011;14031;50.158;8.626;2023-07-09T13:37:04;3.70;;;3.30;;
16173;SDS011;14031;50.158;8.626;2023-07-09T13:39:32;3.97;;;3.33;;
16173;SDS011;14031;50.158;8.626;2023-07-09T13:41:59;5.32;;;3.58;;
16173;SDS011;14031;50.158;8.626;2023-07-09T13:44:27;3.38;;;3.17;;
16173;SDS011;14031;50.158;8.626;2023-07-09T13:46:57;4.22;;;3.40;;
16173;SDS011;14031;50.158;8.626;2023-07-09T13:49:25;6.53;;;3.17;;
16173;SDS011;14031;50.158;8.626;2023-07-09T13:51:54;4.30;;;3.65;;
16173;SDS011;14031;50.158;8.626;2023-07-09T13:54:23;3.45;;;3.25;;
16173;SDS011;14031;50.158;8.626;2023-07-09T13:56:51;3.75;;;3.35;;
16173;SDS011;14031;50.158;8.626;2023-07-09T13:59:19;3.95;;;3.63;;
16173;SDS011;14031;50.158;8.626;2023-07-09T14:01:48;3.47;;;3.17;;
16173;SDS011;14031;50.158;8.626;2023-07-09T14:04:18;5.15;;;3.40;;
16173;SDS011;14031;50.158;8.626;2023-07-09T14:06:46;3.65;;;3.35;;
16173;SDS011;14031;50.158;8.626;2023-07-09T14:09:14;4.25;;;3.88;;
16173;SDS011;14031;50.158;8.626;2023-07-09T14:11:42;3.40;;;3.20;;
16173;SDS011;14031;50.158;8.626;2023-07-09T14:14:15;5.70;;;3.50;;
16173;SDS011;14031;50.158;8.626;2023-07-09T14:16:44;3.90;;;3.47;;
16173;SDS011;14031;50.158;8.626;2023-07-09T14:19:12;3.92;;;3.72;;
16173;SDS011;14031;50.158;8.626;2023-07-09T14:21:41;3.55;;;3.33;;
16173;SDS011;14031;50.158;8.626;2023-07-09T14:24:15;3.67;;;3.40;;
16173;SDS011;14031;50.158;8.626;2023-07-09T14:26:45;3.90;;;3.33;;
16173;SDS011;14031;50.158;8.626;2023-07-09T14:29:12;3.60;;;3.38;;
16173;SDS011;14031;50.158;8.626;2023-07-09T14:31:39;3.80;;;3.30;;
16173;SDS011;14031;50.158;8.626;2023-07-09T14:34:17;3.78;;;3.45;;
16173;SDS011;14031;50.158;8.626;2023-07-09T14:36:48;4.85;;;3.78;;
16173;SDS011;14031;50.158;8.626;2023-07-09T14:39:16;3.83;;;3.42;;
16173;SDS011;14031;50.158;8.626;2023-07-09T14:41:43;7.38;;;3.70;;
16173;SDS011;14031;50.158;8.626;2023-07-09T14:44:15;5.38;;;3.28;;
16173;SDS011;14031;50.158;8.626;2023-07-09T14:46:47;3.85;;;3.50;;
16173;SDS011;14031;50.158;8.626;2023-07-09T14:49:14;3.70;;;3.50;;
16173;SDS011;14031;50.158;8.626;2023-07-09T14:51:41;4.40;;;3.47;;
16173;SDS011;14031;50.158;8.626;2023-07-09T14:54:11;4.72;;;3.42;;
16173;SDS011;14031;50.158;8.626;2023-07-09T14:56:44;3.63;;;3.28;;
16173;SDS011;14031;50.158;8.626;2023-07-09T14:59:11;5.63;;;3.30;;
16173;SDS011;14031;50.158;8.626;2023-07-09T15:01:38;5.68;;;3.45;;
16173;SDS011;14031;50.158;8.626;2023-07-09T15:04:07;4.07;;;3.50;;
16173;SDS011;14031;50.158;8.626;2023-07-09T15:06:51;5.72;;;3.60;;
16173;SDS011;14031;50.158;8.626;2023-07-09T15:09:21;3.75;;;3.28;;
16173;SDS011;14031;50.158;8.626;2023-07-09T15:11:50;3.60;;;3.38;;
16173;SDS011;14031;50.158;8.626;2023-07-09T15:14:18;3.80;;;3.60;;
16173;SDS011;14031;50.158;8.626;2023-07-09T15:16:45;3.70;;;3.35;;
16173;SDS011;14031;50.158;8.626;2023-07-09T15:19:14;3.58;;;3.38;;
16173;SDS011;14031;50.158;8.626;2023-07-09T15:21:42;3.53;;;3.33;;
16173;SDS011;14031;50.158;8.626;2023-07-09T15:24:10;3.80;;;3.50;;
16173;SDS011;14031;50.158;8.626;2023-07-09T15:26:41;13.95;;;4.85;;
16173;SDS011;14031;50.158;8.626;2023-07-09T15:29:09;9.30;;;4.32;;
16173;SDS011;14031;50.158;8.626;2023-07-09T15:31:40;4.00;;;3.60;;
16173;SDS011;14031;50.158;8.626;2023-07-09T15:34:07;8.65;;;5.70;;
16173;SDS011;14031;50.158;8.626;2023-07-09T15:36:33;6.22;;;5.80;;
16173;SDS011;14031;50.158;8.626;2023-07-09T15:39:00;5.85;;;5.32;;
16173;SDS011;14031;50.158;8.626;2023-07-09T15:41:27;5.18;;;4.43;;
16173;SDS011;14031;50.158;8.626;2023-07-09T15:43:55;9.40;;;8.70;;
16173;SDS011;14031;50.158;8.626;2023-07-09T15:46:22;6.45;;;3.83;;
16173;SDS011;14031;50.158;8.626;2023-07-09T15:48:49;4.32;;;3.92;;
16173;SDS011;14031;50.158;8.626;2023-07-09T15:51:17;4.10;;;3.70;;
16173;SDS011;14031;50.158;8.626;2023-07-09T15:53:44;4.97;;;4.35;;
16173;SDS011;14031;50.158;8.626;2023-07-09T15:56:12;8.77;;;6.63;;
16173;SDS011;14031;50.158;8.626;2023-07-09T15:58:44;5.50;;;5.05;;
16173;SDS011;14031;50.158;8.626;2023-07-09T16:01:13;3.92;;;3.45;;
16173;SDS011;14031;50.158;8.626;2023-07-09T16:03:43;4.80;;;3.88;;
16173;SDS011;14031;50.158;8.626;2023-07-09T16:06:13;4.28;;;3.88;;
16173;SDS011;14031;50.158;8.626;2023-07-09T16:08:39;5.20;;;4.80;;
16173;SDS011;14031;50.158;8.626;2023-07-09T16:11:09;4.35;;;4.03;;
16173;SDS011;14031;50.158;8.626;2023-07-09T16:13:41;4.18;;;3.63;;
16173;SDS011;14031;50.158;8.626;2023-07-09T16:16:08;16.45;;;4.13;;
16173;SDS011;14031;50.158;8.626;2023-07-09T16:18:39;3.63;;;3.33;;
16173;SDS011;14031;50.158;8.626;2023-07-09T16:21:08;5.50;;;4.03;;
16173;SDS011;14031;50.158;8.626;2023-07-09T16:23:48;6.28;;;3.78;;
16173;SDS011;14031;50.158;8.626;2023-07-09T16:26:15;12.88;;;3.67;;
16173;SDS011;14031;50.158;8.626;2023-07-09T16:28:42;3.60;;;3.30;;
16173;SDS011;14031;50.158;8.626;2023-07-09T16:31:10;3.88;;;3.53;;
16173;SDS011;14031;50.158;8.626;2023-07-09T16:33:37;3.75;;;3.10;;
16173;SDS011;14031;50.158;8.626;2023-07-09T16:36:08;4.63;;;3.97;;
16173;SDS011;14031;50.158;8.626;2023-07-09T16:38:37;5.22;;;4.32;;
16173;SDS011;14031;50.158;8.626;2023-07-09T16:41:04;5.07;;;3.58;;
16173;SDS011;14031;50.158;8.626;2023-07-09T16:43:31;7.53;;;5.35;;
16173;SDS011;14031;50.158;8.626;2023-07-09T16:45:58;8.18;;;3.67;;
16173;SDS011;14031;50.158;8.626;2023-07-09T16:48:25;3.50;;;3.20;;
16173;SDS011;14031;50.158;8.626;2023-07-09T16:50:55;4.65;;;4.25;;
16173;SDS011;14031;50.158;8.626;2023-07-09T16:53:22;6.63;;;6.05;;
16173;SDS011;14031;50.158;8.626;2023-07-09T16:55:50;4.10;;;3.80;;
16173;SDS011;14031;50.158;8.626;2023-07-09T16:58:25;6.03;;;3.65;;
16173;SDS011;14031;50.158;8.626;2023-07-09T17:00:56;3.97;;;3.63;;
16173;SDS011;14031;50.158;8.626;2023-07-09T17:03:24;3.95;;;3.63;;
16173;SDS011;14031;50.158;8.626;2023-07-09T17:05:51;6.00;;;3.42;;
16173;SDS011;14031;50.158;8.626;2023-07-09T17:08:22;3.63;;;3.42;;
16173;SDS011;14031;50.158;8.626;2023-07-09T17:10:51;5.47;;;3.42;;
16173;SDS011;14031;50.158;8.626;2023-07-09T17:13:23;3.42;;;3.22;;
16173;SDS011;14031;50.158;8.626;2023-07-09T17:15:52;4.97;;;3.40;;
16173;SDS011;14031;50.158;8.626;2023-07-09T17:18:26;8.60;;;3.85;;
16173;SDS011;14031;50.158;8.626;2023-07-09T17:20:56;4.40;;;3.42;;
16173;SDS011;14031;50.158;8.626;2023-07-09T17:23:27;6.07;;;3.45;;
16173;SDS011;14031;50.158;8.626;2023-07-09T17:25:56;3.33;;;3.08;;
16173;SDS011;14031;50.158;8.626;2023-07-09T17:28:27;3.67;;;3.30;;
16173;SDS011;14031;50.158;8.626;2023-07-09T17:30:56;4.68;;;3.28;;
16173;SDS011;14031;50.158;8.626;2023-07-09T17:33:24;6.45;;;3.70;;
16173;SDS011;14031;50.158;8.626;2023-07-09T17:35:51;5.38;;;3.47;;
16173;SDS011;14031;50.158;8.626;2023-07-09T17:38:21;9.32;;;4.18;;
16173;SDS011;14031;50.158;8.626;2023-07-09T17:40:53;11.57;;;4.22;;
16173;SDS011;14031;50.158;8.626;2023-07-09T17:43:23;6.05;;;3.55;;
16173;SDS011;14031;50.158;8.626;2023-07-09T17:45:51;7.93;;;4.75;;
16173;SDS011;14031;50.158;8.626;2023-07-09T17:48:20;6.38;;;3.60;;
16173;SDS011;14031;50.158;8.626;2023-07-09T17:50:49;11.02;;;4.10;;
16173;SDS011;14031;50.158;8.626;2023-07-09T17:53:17;10.13;;;3.58;;